Time;durP1;ratioP1;P1;durP2;ratioP2;P2;SDS_P1;SDS_P2;PMS_P1;PMS_P2;Temp;Humidity;BMP_temperature;BMP_pressure;BME280_temperature;BME280_humidity;BME280_pressure;Samples;Min_cycle;Max_cycle;Signal;HPM_P1;HPM_P2
2021/09/19 00:00:29;;;;;;;3.95;1.10;;;;;;;;;;5048753;28;20036;-54
2021/09/19 00:02:55;;;;;;;4.55;0.90;;;;;;;;;;5048070;28;20524;-55
2021/09/19 00:05:21;;;;;;;3.17;0.95;;;;;;;;;;5047513;28;20041;-55
2021/09/19 00:07:47;;;;;;;2.83;0.90;;;;;;;;;;5030870;28;20041;-55
2021/09/19 00:10:14;;;;;;;3.72;1.00;;;;;;;;;;5047931;28;20154;-55
2021/09/19 00:12:40;;;;;;;3.03;0.90;;;;;;;;;;5046723;28;20033;-55
2021/09/19 00:15:07;;;;;;;4.50;0.80;;;;;;;;;;5049132;28;20052;-55
2021/09/19 00:17:33;;;;;;;2.72;0.80;;;;;;;;;;5048102;28;20082;-55
2021/09/19 00:19:59;;;;;;;2.70;0.80;;;;;;;;;;5048801;28;20033;-55
2021/09/19 00:22:25;;;;;;;3.00;0.82;;;;;;;;;;5047941;28;20033;-55
2021/09/19 00:24:50;;;;;;;2.28;0.80;;;;;;;;;;5031604;28;20041;-54
2021/09/19 00:27:17;;;;;;;2.83;0.90;;;;;;;;;;5050706;28;20032;-55
2021/09/19 00:29:43;;;;;;;2.10;0.70;;;;;;;;;;5049697;28;20041;-54
2021/09/19 00:32:09;;;;;;;3.75;0.70;;;;;;;;;;5047832;28;20078;-55
2021/09/19 00:34:35;;;;;;;4.18;0.88;;;;;;;;;;5047188;28;20893;-55
2021/09/19 00:37:01;;;;;;;2.13;0.60;;;;;;;;;;5049783;28;20041;-55
2021/09/19 00:39:26;;;;;;;6.22;0.82;;;;;;;;;;5049556;28;20037;-52
2021/09/19 00:41:52;;;;;;;1.83;0.70;;;;;;;;;;5047239;28;20129;-53
2021/09/19 00:44:23;;;;;;;3.03;0.50;;;;;;;;;;5048375;28;20040;-55
2021/09/19 00:46:49;;;;;;;1.45;0.40;;;;;;;;;;5047353;28;20052;-54
2021/09/19 00:49:15;;;;;;;1.67;0.52;;;;;;;;;;5052128;28;20049;-55
2021/09/19 00:51:43;;;;;;;1.40;0.50;;;;;;;;;;5048973;28;20452;-53
2021/09/19 00:54:10;;;;;;;1.20;0.40;;;;;;;;;;5049900;28;20488;-54
2021/09/19 00:56:36;;;;;;;1.98;0.50;;;;;;;;;;5051814;28;20040;-53
2021/09/19 00:59:02;;;;;;;1.50;0.50;;;;;;;;;;5052975;28;20577;-54
2021/09/19 01:01:28;;;;;;;0.95;0.40;;;;;;;;;;5050578;28;20052;-54
2021/09/19 01:03:55;;;;;;;2.33;0.50;;;;;;;;;;5051097;28;20052;-54
2021/09/19 01:06:21;;;;;;;1.77;0.40;;;;;;;;;;5051385;28;20834;-53
2021/09/19 01:08:48;;;;;;;1.67;0.50;;;;;;;;;;5051924;28;20048;-53
2021/09/19 01:11:15;;;;;;;1.55;0.40;;;;;;;;;;5050650;28;20036;-51
2021/09/19 01:13:42;;;;;;;1.88;0.60;;;;;;;;;;5052655;28;20054;-54
2021/09/19 01:16:12;;;;;;;2.17;0.60;;;;;;;;;;5053455;28;20881;-54
2021/09/19 01:18:41;;;;;;;2.53;0.52;;;;;;;;;;5051661;28;20533;-51
2021/09/19 01:21:07;;;;;;;2.42;0.70;;;;;;;;;;5050567;28;20048;-54
2021/09/19 01:23:33;;;;;;;2.42;0.63;;;;;;;;;;5050699;28;20036;-54
2021/09/19 01:26:00;;;;;;;3.97;0.65;;;;;;;;;;5051475;28;20040;-55
2021/09/19 01:28:26;;;;;;;1.45;0.50;;;;;;;;;;5050771;28;20044;-55
2021/09/19 01:30:52;;;;;;;2.13;0.60;;;;;;;;;;5050874;28;20033;-54
2021/09/19 01:33:18;;;;;;;3.88;0.90;;;;;;;;;;5054567;28;20040;-54
2021/09/19 01:35:44;;;;;;;3.03;0.73;;;;;;;;;;5052057;28;20041;-54
2021/09/19 01:38:10;;;;;;;1.77;0.50;;;;;;;;;;5054114;28;20086;-54
2021/09/19 01:40:36;;;;;;;5.43;0.70;;;;;;;;;;5052070;28;20047;-54
2021/09/19 01:43:02;;;;;;;3.22;0.75;;;;;;;;;;5051073;28;20036;-54
2021/09/19 01:45:28;;;;;;;5.28;0.80;;;;;;;;;;5049978;28;20659;-54
2021/09/19 01:47:54;;;;;;;1.75;0.60;;;;;;;;;;5052046;28;20401;-54
2021/09/19 01:50:21;;;;;;;2.30;0.60;;;;;;;;;;5049848;28;20048;-54
2021/09/19 01:52:47;;;;;;;4.57;0.82;;;;;;;;;;5051947;28;20136;-54
2021/09/19 01:55:13;;;;;;;2.10;0.60;;;;;;;;;;5050608;28;20075;-54
2021/09/19 01:57:39;;;;;;;7.25;0.80;;;;;;;;;;5049060;28;20045;-54
2021/09/19 02:00:06;;;;;;;2.33;0.80;;;;;;;;;;5048293;28;20087;-55
2021/09/19 02:02:35;;;;;;;2.20;0.70;;;;;;;;;;5051560;28;20036;-55
2021/09/19 02:05:04;;;;;;;2.72;0.60;;;;;;;;;;5049692;28;20369;-53
2021/09/19 02:07:30;;;;;;;2.53;0.60;;;;;;;;;;5048649;28;20120;-52
2021/09/19 02:09:55;;;;;;;2.50;0.68;;;;;;;;;;5049230;28;20048;-54
2021/09/19 02:12:21;;;;;;;3.75;0.80;;;;;;;;;;5049114;28;20595;-54
2021/09/19 02:14:47;;;;;;;2.20;0.70;;;;;;;;;;5050743;28;20040;-53
2021/09/19 02:17:13;;;;;;;2.45;0.60;;;;;;;;;;5050984;28;20056;-54
2021/09/19 02:19:40;;;;;;;2.40;0.60;;;;;;;;;;5049085;28;20036;-54
2021/09/19 02:22:10;;;;;;;2.05;0.63;;;;;;;;;;5049677;28;20047;-54
2021/09/19 02:24:36;;;;;;;8.00;0.63;;;;;;;;;;5050277;28;20037;-54
2021/09/19 02:27:02;;;;;;;1.80;0.50;;;;;;;;;;5037860;28;20542;-54
2021/09/19 02:29:28;;;;;;;1.35;0.50;;;;;;;;;;5050268;28;20119;-54
2021/09/19 02:31:54;;;;;;;0.93;0.40;;;;;;;;;;5049957;28;20040;-54
2021/09/19 02:34:20;;;;;;;1.77;0.50;;;;;;;;;;5049500;28;20048;-54
2021/09/19 02:36:46;;;;;;;1.55;0.50;;;;;;;;;;5049482;28;20054;-54
2021/09/19 02:39:12;;;;;;;1.33;0.40;;;;;;;;;;5050197;28;20036;-54
2021/09/19 02:41:38;;;;;;;2.75;0.60;;;;;;;;;;5045079;28;20169;-55
2021/09/19 02:44:04;;;;;;;1.77;0.50;;;;;;;;;;5035365;28;20094;-53
2021/09/19 02:46:30;;;;;;;1.55;0.50;;;;;;;;;;5033989;28;20419;-52
2021/09/19 02:48:56;;;;;;;5.40;0.70;;;;;;;;;;5034364;28;20054;-55
2021/09/19 02:51:22;;;;;;;1.95;0.68;;;;;;;;;;5032508;28;20049;-55
2021/09/19 02:53:47;;;;;;;3.35;0.70;;;;;;;;;;5033093;28;20037;-55
2021/09/19 02:56:13;;;;;;;5.43;0.75;;;;;;;;;;5033194;28;20059;-55
2021/09/19 02:58:39;;;;;;;2.50;0.60;;;;;;;;;;5032390;28;20045;-55
2021/09/19 03:01:05;;;;;;;1.73;0.52;;;;;;;;;;5033354;28;20198;-55
2021/09/19 03:03:30;;;;;;;2.72;0.70;;;;;;;;;;5031034;28;20041;-55
2021/09/19 03:05:56;;;;;;;2.17;0.70;;;;;;;;;;5033441;28;20560;-52
2021/09/19 03:08:22;;;;;;;2.20;0.60;;;;;;;;;;5034442;28;20041;-54
2021/09/19 03:10:48;;;;;;;1.58;0.60;;;;;;;;;;5031712;28;20045;-54
2021/09/19 03:13:14;;;;;;;4.05;0.73;;;;;;;;;;5034623;28;20048;-55
2021/09/19 03:15:39;;;;;;;2.55;0.70;;;;;;;;;;5030186;28;20404;-54
2021/09/19 03:18:05;;;;;;;3.78;0.80;;;;;;;;;;5030749;28;20091;-52
2021/09/19 03:20:31;;;;;;;3.22;0.80;;;;;;;;;;5028074;28;20024;-54
2021/09/19 03:22:57;;;;;;;2.65;1.00;;;;;;;;;;5029436;28;20040;-54
2021/09/19 03:25:23;;;;;;;3.90;0.70;;;;;;;;;;5030247;28;20148;-53
2021/09/19 03:27:49;;;;;;;5.53;1.15;;;;;;;;;;5031896;28;20053;-55
2021/09/19 03:30:15;;;;;;;3.45;0.75;;;;;;;;;;5030506;28;20053;-55
2021/09/19 03:32:41;;;;;;;3.53;0.40;;;;;;;;;;5030477;28;20045;-55
2021/09/19 03:35:07;;;;;;;4.18;0.70;;;;;;;;;;5029939;28;20044;-53
2021/09/19 03:37:33;;;;;;;3.50;0.50;;;;;;;;;;5028874;28;20048;-53
2021/09/19 03:39:59;;;;;;;8.02;0.75;;;;;;;;;;5031314;28;20045;-55
2021/09/19 03:42:25;;;;;;;2.70;0.50;;;;;;;;;;5037268;28;20099;-53
2021/09/19 03:44:51;;;;;;;2.78;0.40;;;;;;;;;;5046506;28;20041;-55
2021/09/19 03:47:19;;;;;;;2.90;0.80;;;;;;;;;;5047223;28;20048;-54
2021/09/19 03:49:44;;;;;;;2.95;0.85;;;;;;;;;;5046912;28;20060;-55
2021/09/19 03:52:10;;;;;;;2.33;0.60;;;;;;;;;;5046018;28;20151;-56
2021/09/19 03:54:36;;;;;;;1.52;0.50;;;;;;;;;;5045155;28;20052;-55
2021/09/19 03:57:02;;;;;;;1.25;0.47;;;;;;;;;;5047521;28;20032;-54
2021/09/19 03:59:28;;;;;;;1.73;0.50;;;;;;;;;;5046548;28;20082;-55
2021/09/19 04:01:54;;;;;;;1.55;0.40;;;;;;;;;;5046994;28;20064;-54
2021/09/19 04:04:19;;;;;;;2.47;0.50;;;;;;;;;;5048319;28;20086;-55
2021/09/19 04:06:45;;;;;;;2.67;0.57;;;;;;;;;;5043695;28;20037;-55
2021/09/19 04:09:11;;;;;;;4.45;0.60;;;;;;;;;;5043492;28;20673;-53
2021/09/19 04:11:37;;;;;;;2.00;0.60;;;;;;;;;;5024280;28;20036;-55
2021/09/19 04:14:03;;;;;;;1.80;0.40;;;;;;;;;;5046403;28;20583;-56
2021/09/19 04:16:29;;;;;;;1.05;0.40;;;;;;;;;;5045187;28;20047;-51
2021/09/19 04:18:54;;;;;;;0.68;0.40;;;;;;;;;;5047976;28;20075;-55
2021/09/19 04:21:20;;;;;;;1.42;0.40;;;;;;;;;;5047616;28;20087;-54
2021/09/19 04:23:46;;;;;;;2.40;0.65;;;;;;;;;;5046068;28;20046;-53
2021/09/19 04:26:12;;;;;;;1.20;0.43;;;;;;;;;;5046885;28;20036;-55
2021/09/19 04:28:38;;;;;;;3.20;0.45;;;;;;;;;;5045395;28;21644;-55
2021/09/19 04:31:03;;;;;;;4.57;0.80;;;;;;;;;;5046360;28;20169;-55
2021/09/19 04:33:29;;;;;;;17.95;1.08;;;;;;;;;;5045897;28;20036;-55
2021/09/19 04:35:55;;;;;;;8.68;0.90;;;;;;;;;;5047005;28;20579;-55
2021/09/19 04:38:21;;;;;;;6.35;0.77;;;;;;;;;;5048076;28;20049;-56
2021/09/19 04:40:47;;;;;;;1.45;0.45;;;;;;;;;;5048587;28;20040;-57
2021/09/19 04:43:13;;;;;;;1.23;0.40;;;;;;;;;;5046298;28;20448;-54
2021/09/19 04:45:39;;;;;;;1.38;0.50;;;;;;;;;;5045346;28;20037;-56
2021/09/19 04:48:06;;;;;;;1.23;0.40;;;;;;;;;;5046171;28;20041;-55
2021/09/19 04:50:32;;;;;;;0.73;0.40;;;;;;;;;;5047486;28;20041;-57
2021/09/19 04:52:57;;;;;;;0.77;0.32;;;;;;;;;;5047098;28;20037;-56
2021/09/19 04:55:23;;;;;;;1.77;0.45;;;;;;;;;;5046380;28;20074;-56
2021/09/19 04:57:49;;;;;;;0.60;0.40;;;;;;;;;;5046885;28;20071;-56
2021/09/19 05:00:15;;;;;;;1.15;0.45;;;;;;;;;;5047427;28;22121;-55
2021/09/19 05:02:41;;;;;;;0.80;0.40;;;;;;;;;;5046226;28;20041;-54
2021/09/19 05:05:07;;;;;;;0.90;0.40;;;;;;;;;;5046624;28;20037;-53
2021/09/19 05:07:33;;;;;;;0.82;0.45;;;;;;;;;;5042747;28;20029;-56
2021/09/19 05:09:58;;;;;;;1.83;0.50;;;;;;;;;;5045594;28;20119;-56
2021/09/19 05:12:24;;;;;;;0.60;0.30;;;;;;;;;;5045348;28;21959;-56
2021/09/19 05:14:53;;;;;;;1.13;0.40;;;;;;;;;;5048236;28;20055;-56
2021/09/19 05:17:18;;;;;;;1.80;0.50;;;;;;;;;;5047142;28;20083;-56
2021/09/19 05:19:44;;;;;;;0.75;0.38;;;;;;;;;;5045395;28;20043;-55
2021/09/19 05:22:10;;;;;;;0.85;0.40;;;;;;;;;;5045138;28;20064;-56
2021/09/19 05:24:36;;;;;;;0.93;0.40;;;;;;;;;;5029803;28;20044;-56
2021/09/19 05:27:02;;;;;;;0.70;0.30;;;;;;;;;;5046875;28;20071;-56
2021/09/19 05:29:28;;;;;;;2.95;0.40;;;;;;;;;;5046041;28;20110;-55
2021/09/19 05:31:53;;;;;;;1.00;0.40;;;;;;;;;;5046340;28;20469;-55
2021/09/19 05:34:19;;;;;;;0.63;0.32;;;;;;;;;;5048696;28;20044;-56
2021/09/19 05:36:45;;;;;;;0.55;0.30;;;;;;;;;;5052261;28;20040;-55
2021/09/19 05:39:11;;;;;;;0.35;0.30;;;;;;;;;;5051334;28;22006;-56
2021/09/19 05:41:37;;;;;;;0.88;0.40;;;;;;;;;;5049562;28;20186;-54
2021/09/19 05:44:02;;;;;;;0.95;0.40;;;;;;;;;;5050697;28;20049;-53
2021/09/19 05:46:28;;;;;;;0.98;0.30;;;;;;;;;;5049636;28;20451;-55
2021/09/19 05:48:54;;;;;;;0.98;0.40;;;;;;;;;;5048639;28;20064;-55
2021/09/19 05:51:23;;;;;;;2.13;0.40;;;;;;;;;;5050620;28;20029;-52
2021/09/19 05:53:49;;;;;;;0.57;0.32;;;;;;;;;;5051834;28;20048;-56
2021/09/19 05:56:15;;;;;;;1.23;0.40;;;;;;;;;;5049994;28;20033;-55
2021/09/19 05:58:41;;;;;;;0.95;0.40;;;;;;;;;;5048894;28;20033;-54
2021/09/19 06:01:06;;;;;;;0.65;0.40;;;;;;;;;;5051224;28;20044;-55
2021/09/19 06:03:32;;;;;;;1.27;0.40;;;;;;;;;;5051070;28;20044;-53
2021/09/19 06:05:58;;;;;;;0.50;0.40;;;;;;;;;;5049689;28;20075;-53
2021/09/19 06:08:24;;;;;;;1.25;0.40;;;;;;;;;;5049605;28;20438;-54
2021/09/19 06:10:50;;;;;;;1.00;0.40;;;;;;;;;;5048380;28;20667;-54
2021/09/19 06:13:15;;;;;;;1.27;0.40;;;;;;;;;;5049687;28;20043;-54
2021/09/19 06:15:41;;;;;;;0.47;0.30;;;;;;;;;;5049693;28;20072;-56
2021/09/19 06:18:07;;;;;;;0.82;0.30;;;;;;;;;;5049770;28;20036;-54
2021/09/19 06:20:33;;;;;;;1.05;0.40;;;;;;;;;;5048876;28;20417;-56
2021/09/19 06:22:59;;;;;;;1.13;0.40;;;;;;;;;;5052496;28;20039;-56
2021/09/19 06:25:25;;;;;;;1.33;0.50;;;;;;;;;;5030990;28;20912;-56
2021/09/19 06:27:51;;;;;;;1.52;0.50;;;;;;;;;;5049705;28;20037;-54
2021/09/19 06:30:16;;;;;;;2.40;0.47;;;;;;;;;;5050932;28;20102;-55
2021/09/19 06:32:42;;;;;;;1.08;0.40;;;;;;;;;;5050025;28;20032;-56
2021/09/19 06:35:08;;;;;;;1.10;0.40;;;;;;;;;;5051014;28;20033;-56
2021/09/19 06:37:34;;;;;;;1.65;0.50;;;;;;;;;;5051248;28;20493;-55
2021/09/19 06:40:00;;;;;;;1.15;0.40;;;;;;;;;;5032713;28;20041;-56
2021/09/19 06:42:26;;;;;;;1.02;0.40;;;;;;;;;;5049743;28;20056;-56
2021/09/19 06:44:52;;;;;;;1.58;0.43;;;;;;;;;;5049013;28;20086;-55
2021/09/19 06:47:17;;;;;;;0.93;0.43;;;;;;;;;;5048961;28;20749;-54
2021/09/19 06:49:43;;;;;;;0.70;0.35;;;;;;;;;;5048756;28;20063;-56
2021/09/19 06:52:09;;;;;;;1.58;0.45;;;;;;;;;;5048155;28;20079;-55
2021/09/19 06:54:35;;;;;;;0.60;0.30;;;;;;;;;;5028867;28;20095;-55
2021/09/19 06:57:01;;;;;;;2.13;0.50;;;;;;;;;;5045271;28;20053;-55
2021/09/19 06:59:27;;;;;;;1.98;0.55;;;;;;;;;;5049132;28;20048;-56
2021/09/19 07:01:53;;;;;;;1.35;0.40;;;;;;;;;;5048090;28;20091;-55
2021/09/19 07:04:18;;;;;;;1.38;0.50;;;;;;;;;;5048308;28;20034;-55
2021/09/19 07:06:46;;;;;;;0.45;0.30;;;;;;;;;;5048848;28;20115;-56
2021/09/19 07:09:12;;;;;;;0.80;0.40;;;;;;;;;;5048471;28;20048;-55
2021/09/19 07:11:38;;;;;;;1.40;0.50;;;;;;;;;;5045808;28;20098;-55
2021/09/19 07:14:04;;;;;;;0.75;0.30;;;;;;;;;;5048937;28;20452;-53
2021/09/19 07:16:30;;;;;;;0.90;0.40;;;;;;;;;;5047872;28;20544;-55
2021/09/19 07:18:56;;;;;;;1.20;0.40;;;;;;;;;;5049961;28;20045;-55
2021/09/19 07:21:22;;;;;;;0.70;0.40;;;;;;;;;;5047487;28;20519;-55
2021/09/19 07:23:48;;;;;;;1.58;0.40;;;;;;;;;;5049019;28;20401;-54
2021/09/19 07:26:14;;;;;;;1.38;0.40;;;;;;;;;;5047631;28;20083;-57
2021/09/19 07:28:40;;;;;;;1.67;0.47;;;;;;;;;;5048064;28;20048;-53
2021/09/19 07:31:06;;;;;;;1.65;0.47;;;;;;;;;;5048612;28;20125;-53
2021/09/19 07:33:32;;;;;;;1.23;0.47;;;;;;;;;;5030732;28;21388;-53
2021/09/19 07:35:58;;;;;;;0.70;0.38;;;;;;;;;;5049286;28;20040;-54
2021/09/19 07:38:24;;;;;;;1.23;0.40;;;;;;;;;;5046784;28;20040;-54
2021/09/19 07:40:51;;;;;;;1.25;0.40;;;;;;;;;;5047969;28;20064;-52
2021/09/19 07:43:17;;;;;;;1.08;0.50;;;;;;;;;;5047148;28;20071;-54
2021/09/19 07:45:43;;;;;;;0.60;0.38;;;;;;;;;;5047349;28;20051;-55
2021/09/19 07:48:09;;;;;;;3.08;0.57;;;;;;;;;;5047965;28;20037;-52
2021/09/19 07:50:35;;;;;;;3.65;0.70;;;;;;;;;;5047585;28;20052;-56
2021/09/19 07:53:01;;;;;;;1.55;0.50;;;;;;;;;;5048904;28;20045;-55
2021/09/19 07:55:28;;;;;;;2.65;0.70;;;;;;;;;;5048379;28;20052;-52
2021/09/19 07:57:54;;;;;;;1.38;0.47;;;;;;;;;;5046768;28;20110;-55
2021/09/19 08:00:20;;;;;;;1.70;0.50;;;;;;;;;;5046508;28;20029;-55
2021/09/19 08:02:46;;;;;;;1.52;0.50;;;;;;;;;;5047146;28;20071;-54
2021/09/19 08:05:12;;;;;;;2.65;0.60;;;;;;;;;;5048462;28;20412;-54
2021/09/19 08:07:38;;;;;;;0.93;0.40;;;;;;;;;;5047040;28;20513;-55
2021/09/19 08:10:05;;;;;;;1.83;0.50;;;;;;;;;;5047064;28;21088;-55
2021/09/19 08:12:31;;;;;;;0.68;0.32;;;;;;;;;;5047291;28;20397;-56
2021/09/19 08:14:57;;;;;;;0.90;0.40;;;;;;;;;;5049118;28;20037;-55
2021/09/19 08:17:23;;;;;;;1.10;0.40;;;;;;;;;;5046721;28;22030;-55
2021/09/19 08:19:48;;;;;;;1.33;0.50;;;;;;;;;;5049192;28;20041;-55
2021/09/19 08:22:14;;;;;;;1.50;0.50;;;;;;;;;;5048022;28;20093;-55
2021/09/19 08:24:40;;;;;;;1.55;0.50;;;;;;;;;;5047493;28;20115;-55
2021/09/19 08:27:07;;;;;;;1.58;0.50;;;;;;;;;;5048268;28;20075;-56
2021/09/19 08:29:34;;;;;;;1.25;0.50;;;;;;;;;;5047629;28;20057;-55
2021/09/19 08:32:00;;;;;;;1.15;0.50;;;;;;;;;;5046310;28;20033;-56
2021/09/19 08:34:26;;;;;;;2.97;0.50;;;;;;;;;;5045544;28;20025;-56
2021/09/19 08:36:52;;;;;;;1.02;0.40;;;;;;;;;;5047116;28;20477;-56
2021/09/19 08:39:18;;;;;;;1.10;0.50;;;;;;;;;;5045778;28;20114;-56
2021/09/19 08:41:49;;;;;;;3.30;0.60;;;;;;;;;;5030193;28;20155;-55
2021/09/19 08:44:17;;;;;;;1.60;0.50;;;;;;;;;;5028279;28;20037;-55
2021/09/19 08:46:44;;;;;;;1.98;0.55;;;;;;;;;;5047832;28;20164;-55
2021/09/19 08:49:09;;;;;;;3.70;0.40;;;;;;;;;;5048581;28;20607;-55
2021/09/19 08:51:35;;;;;;;1.95;0.50;;;;;;;;;;5046334;28;20036;-55
2021/09/19 08:54:01;;;;;;;0.98;0.40;;;;;;;;;;5047867;28;20048;-56
2021/09/19 08:56:27;;;;;;;0.95;0.40;;;;;;;;;;5046983;28;20076;-55
2021/09/19 08:58:53;;;;;;;2.28;0.60;;;;;;;;;;5047915;28;20044;-56
2021/09/19 09:01:19;;;;;;;1.00;0.40;;;;;;;;;;5046106;28;20029;-55
2021/09/19 09:03:45;;;;;;;0.85;0.40;;;;;;;;;;5046841;28;20033;-55
2021/09/19 09:06:14;;;;;;;1.08;0.40;;;;;;;;;;5047824;28;20033;-55
2021/09/19 09:08:41;;;;;;;3.42;0.60;;;;;;;;;;5047192;28;20122;-55
2021/09/19 09:11:07;;;;;;;1.05;0.50;;;;;;;;;;5050470;28;20119;-54
2021/09/19 09:13:35;;;;;;;2.25;0.60;;;;;;;;;;5050025;28;20417;-53
2021/09/19 09:16:03;;;;;;;1.48;0.50;;;;;;;;;;5049637;28;20584;-55
2021/09/19 09:18:30;;;;;;;1.10;0.50;;;;;;;;;;5048905;28;20044;-56
2021/09/19 09:20:59;;;;;;;2.72;0.43;;;;;;;;;;5050056;28;20167;-55
2021/09/19 09:23:34;;;;;;;1.52;0.50;;;;;;;;;;5051256;28;20037;-56
2021/09/19 09:26:11;;;;;;;1.48;0.40;;;;;;;;;;5050477;28;20409;-54
2021/09/19 09:28:41;;;;;;;1.85;0.50;;;;;;;;;;5050776;28;20044;-56
2021/09/19 09:31:08;;;;;;;1.17;0.47;;;;;;;;;;5050546;28;20051;-54
2021/09/19 09:33:33;;;;;;;2.05;0.60;;;;;;;;;;5049587;28;20047;-56
2021/09/19 09:36:05;;;;;;;2.20;0.55;;;;;;;;;;5050804;28;20037;-53
2021/09/19 09:38:31;;;;;;;2.25;0.60;;;;;;;;;;5049233;28;20040;-55
2021/09/19 09:40:57;;;;;;;1.17;0.40;;;;;;;;;;5050762;28;20040;-56
2021/09/19 09:43:23;;;;;;;1.52;0.50;;;;;;;;;;5049778;28;20060;-53
2021/09/19 09:45:49;;;;;;;1.35;0.43;;;;;;;;;;5050634;28;21867;-55
2021/09/19 09:48:24;;;;;;;0.95;0.50;;;;;;;;;;5049444;28;20052;-55
2021/09/19 09:50:54;;;;;;;1.55;0.52;;;;;;;;;;5047478;28;20059;-55
2021/09/19 09:53:23;;;;;;;1.58;0.55;;;;;;;;;;5048806;28;20438;-55
2021/09/19 09:55:50;;;;;;;2.00;0.70;;;;;;;;;;5049085;28;20032;-55
2021/09/19 09:58:19;;;;;;;1.70;0.57;;;;;;;;;;5051007;28;20033;-55
2021/09/19 10:00:46;;;;;;;1.45;0.50;;;;;;;;;;5049645;28;20735;-53
2021/09/19 10:03:12;;;;;;;0.75;0.47;;;;;;;;;;5032534;28;20462;-52
2021/09/19 10:05:39;;;;;;;2.35;0.70;;;;;;;;;;5048355;28;20141;-55
2021/09/19 10:08:05;;;;;;;1.48;0.50;;;;;;;;;;5049031;28;20576;-55
2021/09/19 10:10:32;;;;;;;1.67;0.55;;;;;;;;;;5048273;28;20050;-55
2021/09/19 10:12:59;;;;;;;1.58;0.50;;;;;;;;;;5048937;28;20843;-55
2021/09/19 10:15:25;;;;;;;1.50;0.50;;;;;;;;;;5048611;28;20389;-55
2021/09/19 10:17:51;;;;;;;2.30;0.70;;;;;;;;;;5048318;28;20053;-55
2021/09/19 10:20:19;;;;;;;1.13;0.50;;;;;;;;;;5046895;28;20104;-55
2021/09/19 10:22:48;;;;;;;1.73;0.60;;;;;;;;;;5050021;28;20062;-55
2021/09/19 10:25:37;;;;;;;1.60;0.50;;;;;;;;;;5050269;28;20051;-55
2021/09/19 10:28:15;;;;;;;1.25;0.55;;;;;;;;;;5034829;28;20032;-53
2021/09/19 10:31:18;;;;;;;1.58;0.60;;;;;;;;;;5047606;28;20114;-54
2021/09/19 10:33:44;;;;;;;2.00;0.60;;;;;;;;;;5007081;28;20161;-54
2021/09/19 10:36:11;;;;;;;2.22;0.70;;;;;;;;;;5048832;28;20523;-55
2021/09/19 10:38:40;;;;;;;2.42;0.70;;;;;;;;;;5048754;28;20842;-55
2021/09/19 10:41:13;;;;;;;2.15;0.60;;;;;;;;;;5037841;28;20037;-54
2021/09/19 10:43:52;;;;;;;2.50;0.60;;;;;;;;;;5048650;28;20494;-53
2021/09/19 10:46:36;;;;;;;1.88;0.60;;;;;;;;;;5047158;28;20386;-55
2021/09/19 10:49:28;;;;;;;1.58;0.47;;;;;;;;;;5049172;28;20062;-55
2021/09/19 10:52:00;;;;;;;4.25;0.70;;;;;;;;;;5043195;28;20686;-54
2021/09/19 10:54:48;;;;;;;1.67;0.70;;;;;;;;;;5048124;28;20040;-55
2021/09/19 10:57:27;;;;;;;3.63;0.80;;;;;;;;;;5050096;28;20041;-55
2021/09/19 11:00:08;;;;;;;2.85;0.60;;;;;;;;;;5047962;28;20553;-55
2021/09/19 11:02:37;;;;;;;2.33;0.70;;;;;;;;;;5048108;28;20083;-52
2021/09/19 11:05:22;;;;;;;1.85;0.65;;;;;;;;;;5048057;28;20123;-54
2021/09/19 11:07:51;;;;;;;4.85;1.10;;;;;;;;;;5049756;28;20497;-52
2021/09/19 11:10:17;;;;;;;3.45;1.10;;;;;;;;;;5049319;28;20152;-53
2021/09/19 11:12:44;;;;;;;3.05;1.00;;;;;;;;;;5049638;28;20032;-55
2021/09/19 11:15:12;;;;;;;2.50;0.80;;;;;;;;;;5048133;28;20087;-52
2021/09/19 11:17:45;;;;;;;2.95;0.80;;;;;;;;;;5047116;28;20121;-54
2021/09/19 11:20:13;;;;;;;3.25;1.00;;;;;;;;;;5049439;28;20136;-53
2021/09/19 11:22:40;;;;;;;2.28;0.80;;;;;;;;;;5047861;28;20038;-52
2021/09/19 11:25:06;;;;;;;2.25;0.80;;;;;;;;;;5048574;28;20791;-55
2021/09/19 11:27:32;;;;;;;2.35;0.80;;;;;;;;;;5046789;28;20044;-53
2021/09/19 11:29:58;;;;;;;3.70;1.00;;;;;;;;;;5046929;28;20052;-55
2021/09/19 11:32:24;;;;;;;4.03;0.80;;;;;;;;;;5047681;28;20210;-55
2021/09/19 11:34:53;;;;;;;4.43;0.90;;;;;;;;;;5047921;28;20501;-56
2021/09/19 11:37:19;;;;;;;2.15;0.60;;;;;;;;;;5045954;28;20123;-56
2021/09/19 11:39:45;;;;;;;2.05;0.70;;;;;;;;;;5046504;28;20033;-55
2021/09/19 11:42:12;;;;;;;1.95;0.60;;;;;;;;;;5030341;28;20408;-56
2021/09/19 11:44:48;;;;;;;2.15;0.60;;;;;;;;;;5046663;28;20056;-55
2021/09/19 11:47:15;;;;;;;5.53;0.90;;;;;;;;;;5047610;28;20041;-53
2021/09/19 11:49:41;;;;;;;2.90;0.68;;;;;;;;;;5046246;28;20079;-56
2021/09/19 11:52:07;;;;;;;2.30;0.82;;;;;;;;;;5048538;28;20450;-54
2021/09/19 11:54:33;;;;;;;2.05;0.65;;;;;;;;;;5046863;28;20440;-53
2021/09/19 11:57:00;;;;;;;2.08;0.60;;;;;;;;;;5047402;28;20036;-54
2021/09/19 11:59:26;;;;;;;2.30;0.65;;;;;;;;;;5045382;28;20037;-55
2021/09/19 12:01:54;;;;;;;2.15;0.70;;;;;;;;;;5046130;28;20508;-56
2021/09/19 12:04:21;;;;;;;1.75;0.60;;;;;;;;;;5047426;28;20052;-55
2021/09/19 12:06:47;;;;;;;2.20;0.70;;;;;;;;;;5047958;28;20033;-55
2021/09/19 12:09:16;;;;;;;3.78;0.82;;;;;;;;;;5032746;28;20387;-56
2021/09/19 12:11:47;;;;;;;2.47;0.80;;;;;;;;;;5048348;28;20167;-54
2021/09/19 12:14:14;;;;;;;1.90;0.70;;;;;;;;;;5047631;28;20553;-54
2021/09/19 12:16:40;;;;;;;1.77;0.68;;;;;;;;;;5045279;28;20518;-56
2021/09/19 12:19:17;;;;;;;2.00;0.60;;;;;;;;;;5048001;28;20117;-55
2021/09/19 12:21:51;;;;;;;2.50;0.80;;;;;;;;;;5033861;28;20830;-55
2021/09/19 12:24:20;;;;;;;1.77;0.50;;;;;;;;;;5047558;28;20033;-55
2021/09/19 12:26:46;;;;;;;2.40;0.70;;;;;;;;;;5031020;28;20056;-53
2021/09/19 12:29:11;;;;;;;2.50;0.73;;;;;;;;;;5048902;28;20134;-54
2021/09/19 12:31:45;;;;;;;5.03;0.60;;;;;;;;;;5045729;28;20769;-52
2021/09/19 12:34:15;;;;;;;2.83;0.60;;;;;;;;;;5045198;28;20045;-55
2021/09/19 12:36:43;;;;;;;3.45;0.80;;;;;;;;;;5045047;28;20044;-52
2021/09/19 12:39:17;;;;;;;2.30;0.60;;;;;;;;;;5028048;28;20512;-55
2021/09/19 12:41:44;;;;;;;2.22;0.80;;;;;;;;;;5045258;28;20052;-56
2021/09/19 12:44:13;;;;;;;2.50;0.85;;;;;;;;;;5046521;28;20036;-55
2021/09/19 12:46:44;;;;;;;2.20;0.80;;;;;;;;;;5047105;28;20109;-55
2021/09/19 12:49:16;;;;;;;3.22;0.75;;;;;;;;;;5030090;28;20072;-56
2021/09/19 12:51:42;;;;;;;1.75;0.60;;;;;;;;;;5045646;28;20064;-56
2021/09/19 12:54:22;;;;;;;2.47;0.70;;;;;;;;;;5047288;28;20167;-54
2021/09/19 12:56:48;;;;;;;2.65;0.80;;;;;;;;;;5046368;28;20037;-55
2021/09/19 12:59:14;;;;;;;4.05;1.08;;;;;;;;;;5047408;28;20103;-54
2021/09/19 13:01:40;;;;;;;2.40;0.90;;;;;;;;;;5047315;28;20052;-56
2021/09/19 13:04:05;;;;;;;5.55;1.10;;;;;;;;;;5028354;28;20080;-54
2021/09/19 13:06:31;;;;;;;3.42;1.08;;;;;;;;;;5045178;28;20466;-56
2021/09/19 13:08:57;;;;;;;3.60;0.80;;;;;;;;;;5046655;28;20048;-54
2021/09/19 13:11:23;;;;;;;2.85;0.85;;;;;;;;;;5045013;28;20132;-56
2021/09/19 13:13:48;;;;;;;3.78;1.10;;;;;;;;;;5046007;28;20593;-56
2021/09/19 13:16:14;;;;;;;4.30;0.85;;;;;;;;;;5046507;28;20067;-56
2021/09/19 13:18:40;;;;;;;2.63;0.73;;;;;;;;;;5046521;28;20955;-56
2021/09/19 13:21:06;;;;;;;3.63;1.08;;;;;;;;;;5047657;28;20044;-56
2021/09/19 13:23:32;;;;;;;2.50;0.90;;;;;;;;;;5046428;28;20037;-55
2021/09/19 13:25:58;;;;;;;4.85;1.20;;;;;;;;;;5045231;28;20052;-54
2021/09/19 13:28:24;;;;;;;3.03;1.00;;;;;;;;;;5045534;28;20047;-56
2021/09/19 13:30:49;;;;;;;6.43;1.15;;;;;;;;;;5046039;28;20131;-53
2021/09/19 13:33:15;;;;;;;4.18;0.75;;;;;;;;;;5047202;28;20045;-55
2021/09/19 13:35:41;;;;;;;5.13;0.88;;;;;;;;;;5045460;28;20048;-54
2021/09/19 13:38:07;;;;;;;4.10;1.08;;;;;;;;;;5047537;28;20052;-56
2021/09/19 13:40:32;;;;;;;2.10;0.70;;;;;;;;;;5047588;28;20090;-55
2021/09/19 13:42:58;;;;;;;3.60;1.20;;;;;;;;;;5046086;28;20512;-56
2021/09/19 13:45:24;;;;;;;2.38;0.80;;;;;;;;;;5045874;28;20072;-56
2021/09/19 13:47:50;;;;;;;5.32;1.05;;;;;;;;;;5046494;28;20044;-56
2021/09/19 13:50:16;;;;;;;1.75;0.57;;;;;;;;;;5046232;28;20815;-56
2021/09/19 13:52:42;;;;;;;2.63;0.90;;;;;;;;;;5046332;28;23114;-56
2021/09/19 13:55:08;;;;;;;2.40;0.90;;;;;;;;;;5045263;28;20470;-55
2021/09/19 13:57:33;;;;;;;2.67;0.85;;;;;;;;;;5049741;28;20067;-54
2021/09/19 13:59:59;;;;;;;3.00;0.70;;;;;;;;;;5050078;28;20041;-54
2021/09/19 14:02:25;;;;;;;4.57;1.10;;;;;;;;;;5049973;28;20111;-53
2021/09/19 14:04:51;;;;;;;8.75;1.10;;;;;;;;;;5048549;28;20191;-54
2021/09/19 14:07:16;;;;;;;3.60;0.90;;;;;;;;;;5050390;28;20036;-54
2021/09/19 14:09:42;;;;;;;4.88;1.08;;;;;;;;;;5049318;28;20048;-55
2021/09/19 14:12:09;;;;;;;4.60;0.90;;;;;;;;;;5049291;28;20157;-55
2021/09/19 14:14:35;;;;;;;3.30;1.02;;;;;;;;;;5036541;28;20141;-55
2021/09/19 14:17:01;;;;;;;3.30;0.82;;;;;;;;;;5051389;28;20033;-55
2021/09/19 14:19:27;;;;;;;2.65;0.95;;;;;;;;;;5050988;28;20063;-54
2021/09/19 14:21:53;;;;;;;4.47;1.00;;;;;;;;;;5050520;28;20782;-54
2021/09/19 14:24:19;;;;;;;3.75;0.98;;;;;;;;;;5052518;28;20036;-55
2021/09/19 14:26:45;;;;;;;3.70;0.98;;;;;;;;;;5052165;28;20125;-53
2021/09/19 14:29:10;;;;;;;4.30;1.00;;;;;;;;;;5049963;28;20045;-54
2021/09/19 14:31:36;;;;;;;2.50;0.90;;;;;;;;;;5050950;28;20500;-55
2021/09/19 14:34:02;;;;;;;4.90;0.85;;;;;;;;;;5050545;28;20133;-56
2021/09/19 14:36:28;;;;;;;1.92;0.70;;;;;;;;;;5050733;28;20033;-55
2021/09/19 14:38:54;;;;;;;4.10;0.80;;;;;;;;;;5052205;28;20592;-53
2021/09/19 14:41:19;;;;;;;2.65;0.93;;;;;;;;;;5051189;28;20037;-54